createdAt,value
2018-08-04T00:00:02.170Z,60.00
2018-08-04T00:02:29.601Z,59.60
2018-08-04T00:04:57.068Z,60.00
2018-08-04T00:07:24.490Z,59.90
2018-08-04T00:09:51.942Z,59.80
2018-08-04T00:12:19.438Z,59.60
2018-08-04T00:14:47.717Z,59.30
2018-08-04T00:17:15.201Z,59.00
2018-08-04T00:19:42.661Z,58.70
2018-08-04T00:22:10.139Z,58.80
2018-08-04T00:24:37.635Z,58.90
2018-08-04T00:27:05.320Z,58.90
2018-08-04T00:29:32.853Z,58.80
2018-08-04T00:32:00.336Z,59.20
2018-08-04T00:34:27.779Z,59.00
2018-08-04T00:36:55.190Z,58.70
2018-08-04T00:39:22.759Z,59.00
2018-08-04T00:41:50.187Z,58.70
2018-08-04T00:44:17.654Z,58.70
2018-08-04T00:46:45.157Z,59.00
2018-08-04T00:49:12.638Z,59.30
2018-08-04T00:51:40.105Z,59.30
2018-08-04T00:54:07.580Z,60.00
2018-08-04T00:56:34.990Z,60.80
2018-08-04T00:59:02.600Z,60.60
2018-08-04T01:01:30.009Z,60.60
2018-08-04T01:03:57.434Z,60.40
2018-08-04T01:06:24.982Z,60.40
2018-08-04T01:08:52.454Z,60.30
2018-08-04T01:11:19.995Z,60.30
2018-08-04T01:13:47.418Z,60.50
2018-08-04T01:16:15.003Z,60.50
2018-08-04T01:18:42.517Z,61.20
2018-08-04T01:21:09.928Z,60.90
2018-08-04T01:23:37.482Z,60.90
2018-08-04T01:26:05.051Z,61.70
2018-08-04T01:28:32.536Z,60.50
2018-08-04T01:30:59.954Z,60.60
2018-08-04T01:33:27.493Z,61.50
2018-08-04T01:35:54.869Z,60.80
2018-08-04T01:38:22.442Z,60.60
2018-08-04T01:40:49.946Z,60.50
2018-08-04T01:43:17.354Z,60.20
2018-08-04T01:45:44.842Z,60.50
2018-08-04T01:48:12.338Z,60.60
2018-08-04T01:50:39.784Z,60.30
2018-08-04T01:53:07.210Z,60.80
2018-08-04T01:55:34.675Z,61.20
2018-08-04T01:58:02.256Z,61.20
2018-08-04T02:00:29.755Z,61.40
2018-08-04T02:02:57.226Z,61.50
2018-08-04T02:05:24.716Z,61.50
2018-08-04T02:07:52.181Z,61.30
2018-08-04T02:10:19.767Z,61.90
2018-08-04T02:12:47.453Z,62.00
2018-08-04T02:15:15.030Z,62.00
2018-08-04T02:17:42.507Z,62.30
2018-08-04T02:20:10.059Z,62.60
2018-08-04T02:22:37.519Z,62.00
2018-08-04T02:25:05.348Z,62.10
2018-08-04T02:27:32.759Z,62.40
2018-08-04T02:30:00.129Z,62.30
2018-08-04T02:32:27.619Z,62.10
2018-08-04T02:34:55.007Z,61.90
2018-08-04T02:37:22.456Z,61.80
2018-08-04T02:39:50.111Z,61.90
2018-08-04T02:42:17.538Z,61.70
2018-08-04T02:44:45.033Z,62.00
2018-08-04T02:47:12.529Z,62.00
2018-08-04T02:49:40.055Z,62.10
2018-08-04T02:52:07.697Z,62.00
2018-08-04T02:54:35.150Z,61.80
2018-08-04T02:57:02.773Z,61.60
2018-08-04T02:59:30.192Z,61.80
2018-08-04T03:01:57.659Z,61.90
2018-08-04T03:04:25.038Z,62.00
2018-08-04T03:06:52.614Z,62.50
2018-08-04T03:09:20.466Z,62.20
2018-08-04T03:11:47.927Z,62.30
2018-08-04T03:14:15.460Z,62.70
2018-08-04T03:16:42.908Z,62.30
2018-08-04T03:19:10.377Z,62.90
2018-08-04T03:21:37.806Z,63.00
2018-08-04T03:24:05.224Z,63.40
2018-08-04T03:26:32.666Z,63.70
2018-08-04T03:29:00.146Z,63.70
2018-08-04T03:31:27.653Z,63.80
2018-08-04T03:33:55.136Z,64.10
2018-08-04T03:36:22.570Z,64.20
2018-08-04T03:38:49.997Z,63.90
2018-08-04T03:41:17.460Z,64.10
2018-08-04T03:43:44.942Z,64.00
2018-08-04T03:46:12.341Z,64.20
2018-08-04T03:48:39.797Z,64.30
2018-08-04T03:51:07.304Z,64.70
2018-08-04T03:53:34.789Z,64.80
2018-08-04T03:56:02.212Z,64.90
2018-08-04T03:58:29.684Z,65.20
2018-08-04T04:00:57.244Z,64.90
2018-08-04T04:03:24.782Z,65.00
2018-08-04T04:05:52.192Z,64.80
2018-08-04T04:08:19.761Z,64.80
2018-08-04T04:10:47.177Z,64.80
2018-08-04T04:13:14.717Z,66.00
2018-08-04T04:15:42.239Z,65.40
2018-08-04T04:18:09.605Z,65.70
2018-08-04T04:20:37.130Z,65.70
2018-08-04T04:23:04.590Z,65.40
2018-08-04T04:25:32.065Z,65.10
2018-08-04T04:27:59.495Z,65.40
2018-08-04T04:30:26.893Z,65.70
2018-08-04T04:32:54.385Z,65.60
2018-08-04T04:35:21.833Z,65.60
2018-08-04T04:37:49.270Z,65.60
2018-08-04T04:40:16.769Z,65.40
2018-08-04T04:42:44.363Z,65.20
2018-08-04T04:45:11.852Z,64.90
2018-08-04T04:47:39.323Z,65.70
2018-08-04T04:50:06.796Z,65.40
2018-08-04T04:52:34.190Z,65.00
2018-08-04T04:55:01.703Z,64.40
2018-08-04T04:57:29.156Z,63.70
2018-08-04T04:59:56.655Z,63.90
2018-08-04T05:02:24.127Z,63.70
2018-08-04T05:04:51.575Z,63.10
2018-08-04T05:07:19.155Z,62.70
2018-08-04T05:09:46.646Z,62.70
2018-08-04T05:12:14.261Z,63.00
2018-08-04T05:14:41.741Z,62.20
2018-08-04T05:17:09.165Z,62.50
2018-08-04T05:19:37.050Z,62.60
2018-08-04T05:22:04.669Z,62.00
2018-08-04T05:24:32.104Z,62.60
2018-08-04T05:26:59.642Z,61.90
2018-08-04T05:29:27.053Z,62.50
2018-08-04T05:31:54.524Z,61.20
2018-08-04T05:34:21.994Z,60.70
2018-08-04T05:36:49.532Z,60.50
2018-08-04T05:39:17.014Z,58.50
2018-08-04T05:41:44.635Z,58.50
2018-08-04T05:44:12.119Z,58.70
2018-08-04T05:46:39.553Z,58.50
2018-08-04T05:49:06.971Z,58.00
2018-08-04T05:51:34.372Z,57.70
2018-08-04T05:54:01.937Z,56.70
2018-08-04T05:56:29.436Z,57.10
2018-08-04T05:58:56.967Z,57.30
2018-08-04T06:01:24.429Z,57.50
2018-08-04T06:03:52.159Z,57.50
2018-08-04T06:06:19.618Z,56.90
2018-08-04T06:08:47.010Z,56.10
2018-08-04T06:11:14.460Z,56.10
2018-08-04T06:13:42.276Z,57.00
2018-08-04T06:16:09.935Z,56.90
2018-08-04T06:18:37.366Z,56.50
2018-08-04T06:21:04.816Z,56.30
2018-08-04T06:23:32.349Z,56.80
2018-08-04T06:25:59.851Z,56.50
2018-08-04T06:28:27.306Z,57.30
2018-08-04T06:30:54.778Z,56.90
2018-08-04T06:33:22.230Z,58.10
2018-08-04T06:35:49.793Z,58.10
2018-08-04T06:38:17.202Z,58.40
2018-08-04T06:40:44.795Z,56.90
2018-08-04T06:43:12.195Z,57.80
2018-08-04T06:45:39.569Z,57.60
2018-08-04T06:48:07.104Z,57.40
2018-08-04T06:50:34.503Z,56.90
2018-08-04T06:53:02.090Z,57.00
2018-08-04T06:55:29.651Z,57.80
2018-08-04T06:57:57.150Z,58.00
2018-08-04T07:00:24.684Z,58.30
2018-08-04T07:02:52.125Z,58.80
2018-08-04T07:05:19.803Z,58.60
2018-08-04T07:07:47.728Z,57.70
2018-08-04T07:10:15.199Z,57.10
2018-08-04T07:12:42.743Z,57.30
2018-08-04T07:15:10.170Z,58.00
2018-08-04T07:17:37.617Z,57.80
2018-08-04T07:20:05.423Z,57.20
2018-08-04T07:22:32.943Z,57.20
2018-08-04T07:25:00.435Z,57.00
2018-08-04T07:27:27.784Z,57.20
2018-08-04T07:29:55.249Z,57.50
2018-08-04T07:32:22.775Z,57.40
2018-08-04T07:34:50.223Z,57.60
2018-08-04T07:37:17.777Z,57.90
2018-08-04T07:39:45.238Z,57.20
2018-08-04T07:42:12.787Z,58.10
2018-08-04T07:44:40.262Z,57.40
2018-08-04T07:47:07.725Z,57.30
2018-08-04T07:49:35.139Z,57.50
2018-08-04T07:52:02.704Z,57.60
2018-08-04T07:54:30.195Z,57.60
2018-08-04T07:56:57.674Z,57.30
2018-08-04T07:59:25.134Z,57.30
2018-08-04T08:01:52.613Z,57.40
2018-08-04T08:04:20.149Z,56.90
2018-08-04T08:06:47.686Z,57.30
2018-08-04T08:09:15.414Z,56.80
2018-08-04T08:11:42.902Z,57.20
2018-08-04T08:14:10.354Z,57.30
2018-08-04T08:16:38.408Z,57.10
2018-08-04T08:19:05.964Z,57.90
2018-08-04T08:21:33.513Z,57.20
2018-08-04T08:24:01.121Z,57.30
2018-08-04T08:26:28.593Z,57.20
2018-08-04T08:28:56.158Z,56.60
2018-08-04T08:31:23.588Z,56.30
2018-08-04T08:33:51.097Z,56.00
2018-08-04T08:36:18.937Z,56.30
2018-08-04T08:38:46.411Z,56.50
2018-08-04T08:41:14.109Z,55.80
2018-08-04T08:43:41.663Z,55.60
2018-08-04T08:46:09.250Z,55.60
2018-08-04T08:48:37.342Z,55.00
2018-08-04T08:51:04.865Z,55.90
2018-08-04T08:53:32.591Z,54.40
2018-08-04T08:55:59.970Z,54.70
2018-08-04T08:58:27.546Z,55.10
2018-08-04T09:00:55.164Z,54.90
2018-08-04T09:03:22.740Z,54.40
2018-08-04T09:05:50.230Z,54.30
2018-08-04T09:08:17.821Z,53.80
2018-08-04T09:10:45.336Z,54.00
2018-08-04T09:13:13.863Z,54.50
2018-08-04T09:15:41.375Z,54.20
2018-08-04T09:18:08.839Z,54.00
2018-08-04T09:20:36.394Z,53.60
2018-08-04T09:23:04.002Z,54.00
2018-08-04T09:25:31.545Z,52.60
2018-08-04T09:27:59.040Z,52.80
2018-08-04T09:30:26.514Z,51.30
2018-08-04T09:32:54.068Z,52.00
2018-08-04T09:35:21.572Z,51.80
2018-08-04T09:37:49.099Z,51.40
2018-08-04T09:40:16.773Z,51.30
2018-08-04T09:42:44.940Z,50.90
2018-08-04T09:45:12.352Z,50.40
2018-08-04T09:47:40.296Z,50.30
2018-08-04T09:50:09.429Z,48.20
2018-08-04T09:52:36.984Z,48.60
2018-08-04T09:55:05.259Z,48.80
2018-08-04T09:57:32.776Z,47.70
2018-08-04T10:00:00.315Z,47.50
2018-08-04T10:02:27.703Z,47.70
2018-08-04T10:04:56.118Z,47.20
2018-08-04T10:07:23.629Z,46.10
2018-08-04T10:09:51.641Z,44.20
2018-08-04T10:12:20.655Z,43.90
2018-08-04T10:14:48.283Z,43.60
2018-08-04T10:17:15.761Z,43.10
2018-08-04T10:19:43.297Z,42.60
2018-08-04T10:22:11.413Z,42.20
2018-08-04T10:24:42.211Z,42.50
2018-08-04T10:27:09.730Z,42.30
2018-08-04T10:29:37.446Z,41.90
2018-08-04T10:32:05.277Z,41.90
2018-08-04T10:34:32.736Z,39.90
2018-08-04T10:37:00.196Z,40.30
2018-08-04T10:39:27.510Z,39.70
2018-08-04T10:41:55.070Z,40.20
2018-08-04T10:44:22.980Z,40.90
2018-08-04T10:46:50.469Z,39.80
2018-08-04T10:49:18.030Z,40.90
2018-08-04T10:51:45.828Z,40.90
2018-08-04T10:54:13.510Z,40.60
2018-08-04T10:59:16.364Z,40.10
2018-08-04T11:01:43.772Z,40.90
2018-08-04T11:04:11.313Z,40.50
2018-08-04T11:06:38.694Z,39.80
2018-08-04T11:09:07.642Z,40.40
2018-08-04T11:11:35.381Z,39.40
2018-08-04T11:14:03.463Z,38.30
2018-08-04T11:16:35.991Z,39.10
2018-08-04T11:19:03.570Z,39.50
2018-08-04T11:21:31.033Z,37.30
2018-08-04T11:23:58.512Z,37.20
2018-08-04T11:26:26.044Z,35.30
2018-08-04T11:28:53.492Z,34.80
2018-08-04T11:31:20.877Z,35.00
2018-08-04T11:33:48.634Z,35.50
2018-08-04T11:36:16.161Z,35.50
2018-08-04T11:38:43.598Z,35.50
2018-08-04T11:41:11.219Z,36.10
2018-08-04T11:43:39.531Z,34.40
2018-08-04T11:46:07.038Z,33.00
2018-08-04T11:48:34.525Z,34.20
2018-08-04T11:51:02.080Z,32.60
2018-08-04T11:53:29.512Z,31.90
2018-08-04T11:55:57.011Z,31.90
2018-08-04T11:58:24.513Z,32.10
2018-08-04T12:00:51.884Z,32.50
2018-08-04T12:03:19.342Z,33.80
2018-08-04T12:05:47.140Z,31.50
2018-08-04T12:08:14.668Z,30.10
2018-08-04T12:10:42.057Z,30.50
2018-08-04T12:13:09.435Z,30.40
2018-08-04T12:15:36.878Z,30.60
2018-08-04T12:18:04.475Z,29.80
2018-08-04T12:20:31.956Z,31.00
2018-08-04T12:22:59.411Z,30.00
2018-08-04T12:25:26.847Z,28.80
2018-08-04T12:27:54.426Z,29.00
2018-08-04T12:30:21.831Z,26.90
2018-08-04T12:32:49.220Z,26.40
2018-08-04T12:35:16.705Z,25.90
2018-08-04T12:37:44.161Z,25.70
2018-08-04T12:40:11.518Z,26.10
2018-08-04T12:42:39.534Z,26.10
2018-08-04T12:45:07.352Z,28.70
2018-08-04T12:47:34.846Z,28.70
2018-08-04T12:50:02.344Z,28.00
2018-08-04T12:52:29.750Z,28.50
2018-08-04T12:54:57.088Z,27.50
2018-08-04T12:57:24.633Z,28.20
2018-08-04T12:59:52.039Z,27.60
2018-08-04T13:02:19.789Z,26.80
2018-08-04T13:04:47.266Z,26.40
2018-08-04T13:07:14.790Z,27.10
2018-08-04T13:09:42.494Z,32.40
2018-08-04T13:12:10.041Z,28.10
2018-08-04T13:14:37.542Z,27.80
2018-08-04T13:17:05.777Z,28.70
2018-08-04T13:19:33.203Z,26.50
2018-08-04T13:22:02.089Z,26.20
2018-08-04T13:24:29.612Z,26.10
2018-08-04T13:26:57.036Z,26.10
2018-08-04T13:29:24.511Z,26.30
2018-08-04T13:31:51.962Z,27.50
2018-08-04T13:34:19.514Z,26.80
2018-08-04T13:36:47.597Z,26.60
2018-08-04T13:39:15.228Z,27.30
2018-08-04T13:41:42.685Z,26.90
2018-08-04T13:44:10.176Z,27.40
2018-08-04T13:46:38.057Z,27.60
2018-08-04T13:49:05.509Z,27.30
2018-08-04T13:51:33.005Z,27.30
2018-08-04T13:54:00.480Z,27.10
2018-08-04T13:56:28.173Z,27.50
2018-08-04T13:58:55.586Z,27.30
2018-08-04T14:01:23.064Z,27.40
2018-08-04T14:03:50.681Z,28.50
2018-08-04T14:06:18.103Z,28.00
2018-08-04T14:08:45.566Z,28.70
2018-08-04T14:11:13.009Z,28.40
2018-08-04T14:13:40.389Z,29.20
2018-08-04T14:16:07.921Z,29.40
2018-08-04T14:18:35.290Z,29.40
2018-08-04T14:21:02.801Z,29.40
2018-08-04T14:23:30.323Z,29.50
2018-08-04T14:25:57.851Z,30.10
2018-08-04T14:28:25.393Z,29.10
2018-08-04T14:30:52.779Z,28.90
2018-08-04T14:33:20.285Z,30.00
2018-08-04T14:35:47.737Z,29.60
2018-08-04T14:38:15.189Z,30.10
2018-08-04T14:40:42.579Z,30.00
2018-08-04T14:43:10.067Z,30.90
2018-08-04T14:45:37.798Z,31.50
2018-08-04T14:48:05.315Z,31.40
2018-08-04T14:50:34.845Z,30.40
2018-08-04T14:53:03.017Z,30.40
2018-08-04T14:55:30.747Z,31.30
2018-08-04T14:57:58.195Z,31.70
2018-08-04T15:00:27.162Z,31.90
2018-08-04T15:02:55.296Z,31.10
2018-08-04T15:05:22.728Z,30.70
2018-08-04T15:07:50.272Z,30.00
2018-08-04T15:10:18.844Z,29.90
2018-08-04T15:12:46.939Z,29.90
2018-08-04T15:15:14.521Z,29.00
2018-08-04T15:17:41.962Z,30.20
2018-08-04T15:20:09.371Z,31.80
2018-08-04T15:22:36.775Z,33.10
2018-08-04T15:25:06.125Z,31.00
2018-08-04T15:27:34.236Z,34.90
2018-08-04T15:30:03.087Z,32.10
2018-08-04T15:32:30.525Z,33.10
2018-08-04T15:34:58.337Z,34.40
2018-08-04T15:37:25.859Z,31.10
2018-08-04T15:39:53.386Z,30.00
2018-08-04T15:42:25.259Z,31.30
2018-08-04T15:44:52.699Z,32.50
2018-08-04T15:47:20.102Z,32.00
2018-08-04T15:49:47.548Z,31.20
2018-08-04T15:52:15.191Z,30.00
2018-08-04T15:54:43.715Z,28.70
2018-08-04T15:57:11.041Z,29.40
2018-08-04T15:59:38.415Z,31.00
2018-08-04T16:02:06.214Z,30.10
2018-08-04T16:04:33.668Z,32.30
2018-08-04T16:07:01.237Z,31.80
2018-08-04T16:09:28.634Z,33.70
2018-08-04T16:11:56.130Z,30.40
2018-08-04T16:14:23.567Z,32.40
2018-08-04T16:16:51.034Z,31.20
2018-08-04T16:19:18.328Z,30.90
2018-08-04T16:21:45.700Z,31.90
2018-08-04T16:24:13.126Z,29.90
2018-08-04T16:26:40.475Z,30.90
2018-08-04T16:29:07.863Z,30.40
2018-08-04T16:31:35.196Z,29.70
2018-08-04T16:34:02.680Z,30.50
2018-08-04T16:36:30.120Z,29.20
2018-08-04T16:38:57.534Z,32.50
2018-08-04T16:41:24.926Z,32.90
2018-08-04T16:43:52.421Z,30.40
2018-08-04T16:46:19.890Z,32.60
2018-08-04T16:48:47.322Z,31.70
2018-08-04T16:51:14.814Z,30.30
2018-08-04T16:53:42.389Z,30.00
2018-08-04T16:56:09.949Z,31.00
2018-08-04T16:58:37.415Z,32.00
2018-08-04T17:01:05.089Z,32.00
2018-08-04T17:03:32.598Z,30.90
2018-08-04T17:06:00.074Z,30.50
2018-08-04T17:08:27.712Z,34.40
2018-08-04T17:10:55.661Z,31.30
2018-08-04T17:13:23.138Z,32.10
2018-08-04T17:15:50.575Z,31.50
2018-08-04T17:18:18.243Z,31.30
2018-08-04T17:20:45.646Z,30.60
2018-08-04T17:23:12.987Z,31.70
2018-08-04T17:25:40.399Z,30.70
2018-08-04T17:28:08.233Z,31.00
2018-08-04T17:30:35.706Z,31.90
2018-08-04T17:33:03.069Z,32.90
2018-08-04T17:35:30.450Z,32.60
2018-08-04T17:37:57.920Z,32.40
2018-08-04T17:40:25.484Z,33.10
2018-08-04T17:42:52.831Z,33.70
2018-08-04T17:45:20.262Z,34.30
2018-08-04T17:47:47.712Z,34.00
2018-08-04T17:50:15.158Z,34.90
2018-08-04T17:52:42.627Z,32.80
2018-08-04T17:55:10.100Z,34.00
2018-08-04T17:57:37.464Z,34.70
2018-08-04T18:00:04.959Z,34.40
2018-08-04T18:02:32.347Z,34.70
2018-08-04T18:04:59.763Z,35.60
2018-08-04T18:07:27.288Z,36.10
2018-08-04T18:09:54.845Z,36.30
2018-08-04T18:12:22.303Z,36.80
2018-08-04T18:14:49.654Z,36.60
2018-08-04T18:17:17.141Z,37.50
2018-08-04T18:19:44.481Z,37.70
2018-08-04T18:22:11.930Z,37.60
2018-08-04T18:24:39.321Z,37.80
2018-08-04T18:27:06.850Z,40.50
2018-08-04T18:29:34.315Z,43.70
2018-08-04T18:32:01.653Z,43.80
2018-08-04T18:34:29.254Z,44.40
2018-08-04T18:36:56.673Z,45.00
2018-08-04T18:39:24.127Z,44.50
2018-08-04T18:41:51.475Z,44.30
2018-08-04T18:44:18.843Z,45.00
2018-08-04T18:46:46.367Z,44.90
2018-08-04T18:49:13.933Z,44.50
2018-08-04T18:51:41.480Z,44.90
2018-08-04T18:54:08.880Z,44.90
2018-08-04T18:56:37.196Z,47.60
2018-08-04T18:59:04.754Z,48.30
2018-08-04T19:01:32.145Z,47.00
2018-08-04T19:03:59.603Z,48.50
2018-08-04T19:06:27.102Z,49.10
2018-08-04T19:08:54.467Z,48.20
2018-08-04T19:11:21.865Z,50.00
2018-08-04T19:13:49.411Z,50.70
2018-08-04T19:16:16.940Z,51.30
2018-08-04T19:18:44.283Z,50.80
2018-08-04T19:21:11.848Z,51.90
2018-08-04T19:23:39.220Z,52.50
2018-08-04T19:26:06.590Z,53.10
2018-08-04T19:28:34.050Z,53.20
2018-08-04T19:31:01.468Z,52.30
2018-08-04T19:33:28.890Z,51.80
2018-08-04T19:35:56.236Z,50.60
2018-08-04T19:38:23.686Z,51.40
2018-08-04T19:40:51.078Z,51.50
2018-08-04T19:43:18.497Z,50.20
2018-08-04T19:45:46.088Z,47.00
2018-08-04T19:48:13.609Z,46.10
2018-08-04T19:50:41.004Z,44.50
2018-08-04T19:53:08.433Z,43.80
2018-08-04T19:55:36.563Z,42.90
2018-08-04T19:58:04.560Z,46.00
2018-08-04T20:00:32.749Z,46.00
2018-08-04T20:03:00.132Z,46.50
2018-08-04T20:05:27.597Z,46.20
2018-08-04T20:07:55.051Z,47.40
2018-08-04T20:10:29.466Z,46.80
2018-08-04T20:12:57.590Z,44.70
2018-08-04T20:15:25.077Z,42.70
2018-08-04T20:17:52.469Z,40.40
2018-08-04T20:20:20.755Z,41.70
2018-08-04T20:22:48.312Z,41.70
2018-08-04T20:25:15.726Z,42.70
2018-08-04T20:27:43.132Z,41.20
2018-08-04T20:30:10.553Z,43.00
2018-08-04T20:32:37.985Z,40.50
2018-08-04T20:35:05.528Z,40.60
2018-08-04T20:37:32.961Z,40.80
2018-08-04T20:40:00.358Z,41.80
2018-08-04T20:42:27.824Z,40.50
2018-08-04T20:44:55.604Z,38.80
2018-08-04T20:47:23.059Z,39.50
2018-08-04T20:49:50.486Z,40.40
2018-08-04T20:52:17.930Z,40.70
2018-08-04T20:54:45.445Z,40.10
2018-08-04T20:57:12.956Z,40.60
2018-08-04T20:59:40.358Z,40.60
2018-08-04T21:02:08.178Z,40.20
2018-08-04T21:04:36.104Z,40.40
2018-08-04T21:07:04.238Z,40.20
2018-08-04T21:09:32.432Z,39.40
2018-08-04T21:11:59.933Z,40.90
2018-08-04T21:14:28.052Z,38.60
2018-08-04T21:16:56.490Z,39.60
2018-08-04T21:19:24.453Z,39.10
2018-08-04T21:21:51.839Z,39.50
2018-08-04T21:24:20.398Z,38.00
2018-08-04T21:26:49.507Z,38.80
2018-08-04T21:29:17.023Z,39.80
2018-08-04T21:31:44.513Z,39.50
2018-08-04T21:34:13.572Z,39.20
2018-08-04T21:36:41.971Z,39.10
2018-08-04T21:39:12.167Z,39.00
2018-08-04T21:41:39.660Z,39.30
2018-08-04T21:44:07.355Z,38.60
2018-08-04T21:46:38.876Z,38.80
2018-08-04T21:49:06.323Z,39.40
2018-08-04T21:51:33.694Z,39.00
2018-08-04T21:54:01.084Z,38.40
2018-08-04T21:56:28.575Z,37.70
2018-08-04T21:58:56.042Z,37.90
2018-08-04T22:01:23.561Z,38.40
2018-08-04T22:03:50.993Z,37.30
2018-08-04T22:06:18.552Z,38.50
2018-08-04T22:08:57.399Z,38.50
2018-08-04T22:11:24.900Z,38.10
2018-08-04T22:13:52.475Z,37.90
2018-08-04T22:16:19.907Z,37.80
2018-08-04T22:18:47.523Z,37.50
2018-08-04T22:21:15.057Z,37.70
2018-08-04T22:23:42.531Z,38.00
2018-08-04T22:26:11.180Z,37.50
2018-08-04T22:28:38.605Z,37.90
2018-08-04T22:31:06.097Z,38.00
2018-08-04T22:33:33.586Z,37.70
2018-08-04T22:36:01.365Z,37.60
2018-08-04T22:38:28.812Z,37.40
2018-08-04T22:40:56.638Z,37.50
2018-08-04T22:43:24.076Z,37.40
2018-08-04T22:46:00.872Z,37.90
2018-08-04T22:48:28.321Z,38.50
2018-08-04T22:50:55.860Z,37.60
2018-08-04T22:53:23.355Z,37.60
2018-08-04T22:55:50.803Z,38.60
2018-08-04T22:58:18.240Z,38.30
2018-08-04T23:00:45.733Z,38.30
2018-08-04T23:03:13.911Z,37.80
2018-08-04T23:05:41.424Z,38.50
2018-08-04T23:08:09.817Z,38.70
2018-08-04T23:10:37.809Z,38.30
2018-08-04T23:13:05.446Z,38.60
2018-08-04T23:15:32.954Z,39.00
2018-08-04T23:18:00.471Z,38.70
2018-08-04T23:20:28.223Z,39.00
2018-08-04T23:22:57.529Z,38.60
2018-08-04T23:25:25.085Z,38.90
2018-08-04T23:27:52.723Z,38.90
2018-08-04T23:30:21.050Z,39.20
2018-08-04T23:32:49.149Z,39.50
2018-08-04T23:35:16.562Z,39.80
2018-08-04T23:37:44.046Z,39.70
2018-08-04T23:40:11.524Z,39.30
2018-08-04T23:42:38.981Z,39.60
2018-08-04T23:45:06.911Z,39.50
2018-08-04T23:47:34.278Z,40.00
2018-08-04T23:50:02.021Z,39.50
2018-08-04T23:52:29.534Z,39.80
2018-08-04T23:54:56.983Z,40.00
2018-08-04T23:57:24.515Z,40.50
2018-08-04T23:59:52.056Z,40.00
